createdAt,value
2023-05-28T00:01:36.948Z,17.21
2023-05-28T00:04:12.329Z,17.25
2023-05-28T00:06:49.363Z,16.11
2023-05-28T00:09:23.349Z,17.14
2023-05-28T00:11:58.966Z,17.19
2023-05-28T00:14:35.170Z,17.19
2023-05-28T00:17:10.770Z,16.79
2023-05-28T00:19:45.861Z,16.87
2023-05-28T00:22:21.502Z,17.04
2023-05-28T00:24:58.570Z,16.65
2023-05-28T00:27:32.849Z,16.81
2023-05-28T00:30:08.611Z,16.85
2023-05-28T00:32:44.170Z,16.18
2023-05-28T00:35:19.627Z,15.72
2023-05-28T00:37:55.608Z,16.61
2023-05-28T00:40:31.118Z,16.40
2023-05-28T00:43:07.510Z,15.72
2023-05-28T00:45:42.472Z,14.93
2023-05-28T00:48:18.163Z,16.49
2023-05-28T00:50:54.155Z,16.48
2023-05-28T00:53:29.331Z,16.57
2023-05-28T00:56:05.463Z,15.71
2023-05-28T00:58:41.350Z,16.66
2023-05-28T01:01:17.278Z,16.04
2023-05-28T01:03:52.064Z,16.58
2023-05-28T01:06:29.244Z,16.47
2023-05-28T01:09:03.522Z,16.26
2023-05-28T01:11:40.958Z,16.27
2023-05-28T01:14:15.868Z,16.26
2023-05-28T01:16:50.761Z,16.19
2023-05-28T01:19:27.456Z,16.40
2023-05-28T01:22:06.222Z,16.25
2023-05-28T01:24:37.918Z,16.18
2023-05-28T01:27:13.183Z,15.97
2023-05-28T01:29:48.559Z,16.12
2023-05-28T01:32:25.183Z,16.17
2023-05-28T01:35:00.542Z,16.01
2023-05-28T01:37:41.571Z,16.04
2023-05-28T01:40:12.415Z,16.04
2023-05-28T01:42:47.161Z,16.04
2023-05-28T01:45:23.858Z,16.26
2023-05-28T01:47:58.366Z,16.02
2023-05-28T01:50:34.157Z,15.95
2023-05-28T01:53:09.843Z,15.57
2023-05-28T01:55:45.546Z,15.96
2023-05-28T01:58:21.144Z,15.86
2023-05-28T02:01:07.123Z,15.70
2023-05-28T02:03:43.052Z,15.68
2023-05-28T02:06:08.962Z,15.65
2023-05-28T02:08:43.955Z,15.54
2023-05-28T02:11:19.771Z,15.56
2023-05-28T02:13:55.809Z,15.47
2023-05-28T02:16:31.518Z,15.67
2023-05-28T02:19:07.016Z,15.67
2023-05-28T02:21:42.571Z,15.59
2023-05-28T02:24:18.262Z,15.45
2023-05-28T02:26:54.444Z,15.71
2023-05-28T02:29:30.106Z,15.66
2023-05-28T02:32:06.244Z,15.60
2023-05-28T02:34:42.361Z,15.32
2023-05-28T02:37:17.238Z,15.42
2023-05-28T02:39:52.935Z,15.39
2023-05-28T02:42:28.506Z,15.37
2023-05-28T02:45:04.741Z,15.43
2023-05-28T02:47:39.930Z,15.39
2023-05-28T02:50:15.692Z,14.96
2023-05-28T02:52:51.369Z,15.21
2023-05-28T02:55:26.932Z,15.50
2023-05-28T02:58:03.440Z,15.25
2023-05-28T03:00:38.158Z,15.48
2023-05-28T03:03:13.886Z,14.88
2023-05-28T03:05:49.594Z,15.13
2023-05-28T03:08:25.621Z,15.09
2023-05-28T03:11:01.118Z,15.22
2023-05-28T03:13:36.723Z,15.23
2023-05-28T03:16:12.725Z,15.41
2023-05-28T03:18:48.627Z,15.13
2023-05-28T03:21:24.248Z,15.22
2023-05-28T03:23:59.940Z,15.09
2023-05-28T03:26:36.545Z,14.97
2023-05-28T03:29:11.511Z,14.84
2023-05-28T03:31:47.354Z,14.98
2023-05-28T03:34:23.877Z,13.86
2023-05-28T03:36:58.380Z,15.03
2023-05-28T03:39:34.240Z,14.97
2023-05-28T03:42:09.945Z,14.75
2023-05-28T03:44:45.535Z,14.85
2023-05-28T03:47:22.389Z,14.98
2023-05-28T03:49:58.636Z,14.83
2023-05-28T03:52:35.296Z,14.91
2023-05-28T03:55:08.740Z,14.90
2023-05-28T03:57:43.970Z,14.95
2023-05-28T04:00:19.795Z,14.99
2023-05-28T04:02:55.398Z,14.86
2023-05-28T04:05:31.247Z,15.03
2023-05-28T04:08:06.573Z,14.62
2023-05-28T04:10:42.492Z,14.83
2023-05-28T04:13:18.168Z,14.89
2023-05-28T04:15:53.965Z,13.63
2023-05-28T04:18:29.968Z,14.88
2023-05-28T04:21:07.273Z,14.95
2023-05-28T04:23:41.862Z,14.97
2023-05-28T04:26:20.876Z,14.95
2023-05-28T04:28:53.505Z,15.12
2023-05-28T04:31:29.405Z,15.14
2023-05-28T04:34:05.034Z,15.11
2023-05-28T04:36:41.566Z,15.10
2023-05-28T04:39:16.263Z,15.15
2023-05-28T04:41:53.842Z,14.75
2023-05-28T04:44:30.954Z,15.17
2023-05-28T04:47:05.489Z,14.95
2023-05-28T04:49:41.250Z,15.26
2023-05-28T04:52:19.912Z,15.14
2023-05-28T04:54:52.605Z,14.37
2023-05-28T04:57:28.249Z,15.37
2023-05-28T05:00:04.441Z,15.58
2023-05-28T05:02:42.775Z,15.69
2023-05-28T05:05:15.755Z,15.70
2023-05-28T05:07:52.385Z,15.82
2023-05-28T05:10:26.839Z,12.65
2023-05-28T05:13:02.496Z,16.13
2023-05-28T05:15:38.114Z,16.30
2023-05-28T05:18:13.887Z,16.28
2023-05-28T05:20:49.935Z,16.31
2023-05-28T05:23:25.150Z,16.41
2023-05-28T05:26:01.374Z,16.06
2023-05-28T05:28:37.420Z,16.59
2023-05-28T05:31:12.687Z,16.70
2023-05-28T05:33:48.315Z,16.70
2023-05-28T05:36:23.919Z,16.18
2023-05-28T05:38:59.914Z,16.96
2023-05-28T05:41:35.464Z,16.47
2023-05-28T05:44:11.098Z,17.15
2023-05-28T05:46:47.052Z,17.13
2023-05-28T05:49:22.628Z,16.18
2023-05-28T05:51:58.556Z,17.22
2023-05-28T05:54:34.488Z,17.60
2023-05-28T05:57:10.379Z,16.72
2023-05-28T05:59:46.312Z,16.80
2023-05-28T06:02:21.981Z,16.60
2023-05-28T06:04:57.651Z,17.05
2023-05-28T06:07:33.320Z,17.13
2023-05-28T06:10:09.273Z,17.28
2023-05-28T06:12:45.405Z,17.71
2023-05-28T06:15:20.403Z,17.28
2023-05-28T06:17:56.461Z,17.82
2023-05-28T06:20:32.389Z,18.35
2023-05-28T06:23:07.959Z,18.21
2023-05-28T06:25:44.338Z,17.99
2023-05-28T06:28:19.988Z,17.97
2023-05-28T06:30:55.939Z,17.88
2023-05-28T06:33:31.569Z,14.34
2023-05-28T06:36:07.481Z,17.81
2023-05-28T06:38:42.810Z,18.07
2023-05-28T06:41:18.733Z,17.17
2023-05-28T06:43:54.341Z,18.00
2023-05-28T06:46:31.150Z,18.09
2023-05-28T06:49:05.892Z,18.25
2023-05-28T06:51:41.346Z,18.81
2023-05-28T06:54:17.409Z,18.77
2023-05-28T06:56:53.363Z,18.47
2023-05-28T06:59:29.421Z,18.93
2023-05-28T07:02:05.800Z,18.76
2023-05-28T07:04:42.062Z,19.82
2023-05-28T07:07:17.563Z,19.62
2023-05-28T07:09:53.050Z,19.35
2023-05-28T07:12:28.795Z,18.91
2023-05-28T07:15:04.849Z,19.47
2023-05-28T07:17:40.959Z,20.32
2023-05-28T07:20:16.712Z,20.38
2023-05-28T07:22:52.029Z,19.74
2023-05-28T07:25:27.928Z,19.90
2023-05-28T07:28:03.824Z,20.41
2023-05-28T07:30:41.487Z,20.17
2023-05-28T07:33:15.953Z,20.50
2023-05-28T07:35:51.220Z,20.19
2023-05-28T07:38:26.674Z,20.51
2023-05-28T07:41:02.260Z,20.71
2023-05-28T07:43:37.939Z,19.77
2023-05-28T07:46:14.710Z,20.51
2023-05-28T07:48:50.302Z,20.54
2023-05-28T07:51:26.818Z,20.88
2023-05-28T07:54:00.720Z,21.06
2023-05-28T07:56:36.486Z,21.14
2023-05-28T07:59:13.750Z,21.17
2023-05-28T08:01:47.866Z,20.55
2023-05-28T08:04:23.180Z,20.91
2023-05-28T08:06:59.138Z,20.33
2023-05-28T08:09:34.983Z,21.64
2023-05-28T08:12:10.981Z,21.28
2023-05-28T08:14:46.072Z,21.19
2023-05-28T08:17:22.781Z,21.26
2023-05-28T08:20:01.660Z,21.94
2023-05-28T08:22:38.833Z,22.14
2023-05-28T08:25:08.876Z,21.93
2023-05-28T08:27:44.194Z,21.83
2023-05-28T08:30:20.047Z,22.43
2023-05-28T08:32:55.614Z,22.02
2023-05-28T08:35:31.254Z,22.38
2023-05-28T08:38:07.079Z,21.64
2023-05-28T08:40:44.824Z,22.59
2023-05-28T08:43:18.695Z,22.94
2023-05-28T08:45:54.480Z,22.58
2023-05-28T08:48:33.620Z,22.49
2023-05-28T08:51:06.547Z,21.64
2023-05-28T08:53:44.427Z,22.54
2023-05-28T08:56:18.264Z,22.90
2023-05-28T08:58:52.411Z,23.33
2023-05-28T09:01:28.191Z,23.39
2023-05-28T09:04:04.126Z,23.18
2023-05-28T09:06:39.709Z,23.24
2023-05-28T09:09:14.843Z,23.11
2023-05-28T09:11:50.639Z,23.15
2023-05-28T09:14:26.067Z,23.66
2023-05-28T09:17:01.776Z,22.95
2023-05-28T09:19:37.390Z,24.05
2023-05-28T09:22:13.471Z,23.59
2023-05-28T09:24:49.910Z,23.57
2023-05-28T09:27:24.374Z,23.54
2023-05-28T09:30:18.149Z,22.91
2023-05-28T09:33:03.895Z,23.52
2023-05-28T09:35:39.896Z,23.28
2023-05-28T09:38:16.057Z,23.90
2023-05-28T09:40:55.594Z,24.46
2023-05-28T09:43:31.628Z,23.24
2023-05-28T09:46:08.408Z,23.81
2023-05-28T09:48:44.375Z,23.99
2023-05-28T09:51:21.281Z,23.78
2023-05-28T09:53:59.480Z,24.43
2023-05-28T09:56:38.505Z,24.95
2023-05-28T09:59:15.903Z,24.29
2023-05-28T10:01:56.765Z,23.43
2023-05-28T10:04:37.522Z,23.97
2023-05-28T10:07:13.500Z,24.52
2023-05-28T10:09:51.350Z,24.72
2023-05-28T10:12:29.499Z,23.73
2023-05-28T10:15:07.232Z,24.02
2023-05-28T10:17:43.801Z,23.38
2023-05-28T10:20:19.845Z,24.86
2023-05-28T10:22:56.079Z,24.15
2023-05-28T10:25:32.396Z,24.95
2023-05-28T10:28:08.353Z,25.62
2023-05-28T10:30:44.311Z,24.82
2023-05-28T10:33:20.602Z,25.29
2023-05-28T10:35:59.934Z,25.07
2023-05-28T10:38:41.935Z,24.90
2023-05-28T10:41:21.749Z,24.88
2023-05-28T10:44:05.660Z,25.10
2023-05-28T10:46:41.664Z,25.73
2023-05-28T10:49:18.649Z,23.67
2023-05-28T10:52:02.455Z,25.20
2023-05-28T10:54:45.554Z,24.95
2023-05-28T10:57:21.793Z,23.90
2023-05-28T11:00:07.304Z,25.22
2023-05-28T11:02:44.477Z,26.17
2023-05-28T11:05:25.409Z,24.04
2023-05-28T11:08:01.659Z,25.95
2023-05-28T11:10:38.027Z,26.03
2023-05-28T11:13:16.198Z,25.88
2023-05-28T11:15:52.398Z,26.20
2023-05-28T11:18:28.479Z,25.81
2023-05-28T11:21:09.382Z,25.59
2023-05-28T11:23:59.190Z,25.95
2023-05-28T11:26:35.122Z,25.85
2023-05-28T11:29:13.409Z,25.72
2023-05-28T11:31:49.433Z,25.76
2023-05-28T11:34:26.142Z,26.34
2023-05-28T11:37:02.055Z,26.88
2023-05-28T11:39:39.670Z,25.57
2023-05-28T11:42:16.693Z,26.37
2023-05-28T11:44:52.941Z,26.43
2023-05-28T11:47:32.423Z,26.71
2023-05-28T11:50:12.625Z,26.74
2023-05-28T11:52:49.820Z,26.07
2023-05-28T11:55:27.217Z,26.42
2023-05-28T11:58:01.381Z,25.99
2023-05-28T12:00:38.320Z,26.21
2023-05-28T12:03:13.309Z,26.79
2023-05-28T12:05:49.318Z,26.48
2023-05-28T12:08:27.192Z,26.33
2023-05-28T12:11:04.344Z,26.13
2023-05-28T12:13:39.645Z,25.73
2023-05-28T12:16:15.885Z,26.04
2023-05-28T12:18:50.948Z,26.32
2023-05-28T12:21:26.475Z,26.94
2023-05-28T12:24:14.254Z,25.11
2023-05-28T12:26:43.404Z,26.83
2023-05-28T12:29:13.787Z,26.91
2023-05-28T12:32:00.583Z,27.59
2023-05-28T12:34:36.504Z,27.53
2023-05-28T12:37:12.424Z,27.53
2023-05-28T12:39:38.389Z,27.17
2023-05-28T12:42:12.770Z,27.30
2023-05-28T12:44:48.461Z,27.33
2023-05-28T12:47:24.063Z,27.72
2023-05-28T12:49:59.713Z,27.39
2023-05-28T12:52:35.317Z,27.12
2023-05-28T12:55:15.283Z,27.48
2023-05-28T12:57:46.579Z,27.63
2023-05-28T13:00:24.586Z,27.16
2023-05-28T13:02:58.249Z,27.52
2023-05-28T13:05:34.468Z,27.07
2023-05-28T13:08:09.231Z,27.04
2023-05-28T13:10:44.831Z,26.81
2023-05-28T13:13:20.575Z,27.99
2023-05-28T13:15:56.105Z,27.40
2023-05-28T13:18:31.632Z,27.99
2023-05-28T13:21:07.262Z,27.63
2023-05-28T13:23:42.911Z,28.22
2023-05-28T13:26:18.550Z,28.10
2023-05-28T13:28:54.203Z,27.29
2023-05-28T13:31:30.035Z,28.57
2023-05-28T13:34:05.451Z,28.09
2023-05-28T13:36:41.029Z,27.88
2023-05-28T13:39:16.768Z,27.50
2023-05-28T13:41:52.463Z,28.24
2023-05-28T13:44:29.341Z,27.69
2023-05-28T13:47:05.572Z,27.99
2023-05-28T13:49:39.213Z,28.23
2023-05-28T13:52:14.981Z,27.05
2023-05-28T13:54:50.505Z,26.68
2023-05-28T13:57:26.412Z,27.94
2023-05-28T14:00:07.408Z,28.49
2023-05-28T14:02:37.799Z,27.47
2023-05-28T14:05:13.262Z,27.52
2023-05-28T14:07:48.895Z,27.32
2023-05-28T14:10:24.615Z,27.97
2023-05-28T14:13:00.330Z,28.13
2023-05-28T14:15:35.811Z,27.38
2023-05-28T14:18:12.269Z,26.47
2023-05-28T14:20:47.110Z,28.20
2023-05-28T14:23:22.779Z,27.12
2023-05-28T14:25:50.625Z,28.04
2023-05-28T14:28:19.515Z,27.46
2023-05-28T14:30:55.561Z,27.47
2023-05-28T14:33:28.829Z,28.13
2023-05-28T14:36:15.399Z,27.70
2023-05-28T14:38:52.376Z,27.24
2023-05-28T14:41:28.275Z,27.37
2023-05-28T14:44:04.139Z,27.21
2023-05-28T14:46:40.209Z,27.67
2023-05-28T14:49:16.231Z,27.15
2023-05-28T14:51:56.341Z,27.94
2023-05-28T14:54:32.256Z,27.74
2023-05-28T14:57:08.136Z,27.45
2023-05-28T14:59:43.130Z,27.48
2023-05-28T15:02:19.435Z,27.64
2023-05-28T15:04:58.117Z,28.53
2023-05-28T15:07:27.913Z,27.12
2023-05-28T15:10:04.525Z,25.04
2023-05-28T15:12:40.477Z,26.78
2023-05-28T15:15:16.464Z,26.85
2023-05-28T15:17:52.644Z,27.44
2023-05-28T15:20:34.131Z,27.30
2023-05-28T15:23:10.273Z,27.28
2023-05-28T15:25:44.393Z,27.29
2023-05-28T15:28:12.329Z,27.11
2023-05-28T15:30:41.244Z,26.77
2023-05-28T15:33:22.079Z,27.26
2023-05-28T15:35:53.198Z,26.59
2023-05-28T15:38:26.593Z,25.81
2023-05-28T15:41:03.125Z,26.49
2023-05-28T15:43:37.824Z,26.30
2023-05-28T15:46:07.752Z,26.32
2023-05-28T15:48:33.604Z,26.76
2023-05-28T15:51:02.544Z,26.13
2023-05-28T15:53:31.110Z,26.81
2023-05-28T15:55:57.437Z,25.69
2023-05-28T15:58:25.039Z,26.84
2023-05-28T16:01:04.524Z,26.55
2023-05-28T16:03:31.529Z,27.19
2023-05-28T16:05:59.084Z,26.10
2023-05-28T16:08:28.161Z,25.88
2023-05-28T16:10:54.257Z,26.00
2023-05-28T16:13:28.252Z,26.06
2023-05-28T16:15:55.354Z,25.85
2023-05-28T16:18:28.752Z,26.50
2023-05-28T16:20:55.409Z,26.18
2023-05-28T16:23:31.725Z,25.60
2023-05-28T16:26:08.173Z,26.17
2023-05-28T16:28:44.184Z,25.60
2023-05-28T16:31:20.407Z,25.89
2023-05-28T16:33:56.404Z,25.20
2023-05-28T16:36:33.972Z,25.34
2023-05-28T16:39:10.117Z,25.06
2023-05-28T16:41:46.326Z,25.37
2023-05-28T16:44:22.401Z,25.21
2023-05-28T16:46:58.928Z,25.33
2023-05-28T16:49:35.833Z,24.97
2023-05-28T16:52:11.875Z,25.23
2023-05-28T16:54:47.783Z,25.02
2023-05-28T16:57:24.306Z,25.15
2023-05-28T17:00:00.227Z,25.18
2023-05-28T17:02:36.234Z,24.91
2023-05-28T17:05:12.334Z,25.58
2023-05-28T17:07:48.956Z,25.28
2023-05-28T17:10:24.861Z,24.91
2023-05-28T17:13:00.748Z,25.06
2023-05-28T17:15:36.633Z,24.93
2023-05-28T17:18:12.655Z,24.92
2023-05-28T17:20:48.808Z,24.79
2023-05-28T17:23:24.979Z,24.78
2023-05-28T17:26:00.987Z,24.57
2023-05-28T17:28:36.902Z,24.98
2023-05-28T17:31:12.842Z,24.64
2023-05-28T17:33:48.979Z,24.45
2023-05-28T17:36:25.109Z,24.66
2023-05-28T17:39:01.160Z,24.22
2023-05-28T17:41:37.067Z,24.54
2023-05-28T17:44:13.235Z,24.50
2023-05-28T17:46:49.133Z,22.11
2023-05-28T17:49:25.165Z,24.57
2023-05-28T17:52:01.037Z,24.42
2023-05-28T17:54:36.919Z,24.56
2023-05-28T17:57:12.885Z,24.44
2023-05-28T17:59:48.819Z,24.49
2023-05-28T18:02:24.778Z,24.24
2023-05-28T18:05:00.942Z,24.66
2023-05-28T18:07:36.845Z,24.54
2023-05-28T18:10:12.735Z,24.31
2023-05-28T18:12:48.630Z,24.49
2023-05-28T18:15:24.516Z,23.62
2023-05-28T18:18:00.688Z,24.23
2023-05-28T18:20:37.579Z,23.90
2023-05-28T18:23:13.787Z,24.08
2023-05-28T18:25:49.680Z,23.47
2023-05-28T18:28:25.825Z,23.78
2023-05-28T18:31:01.757Z,23.86
2023-05-28T18:33:37.811Z,23.63
2023-05-28T18:36:13.696Z,23.95
2023-05-28T18:38:50.865Z,24.18
2023-05-28T18:41:26.833Z,24.09
2023-05-28T18:44:02.765Z,24.05
2023-05-28T18:46:38.846Z,23.27
2023-05-28T18:49:14.954Z,23.96
2023-05-28T18:51:50.923Z,23.90
2023-05-28T18:54:26.912Z,23.75
2023-05-28T18:57:03.076Z,23.40
2023-05-28T18:59:41.352Z,23.38
2023-05-28T19:02:18.194Z,23.50
2023-05-28T19:04:54.312Z,23.57
2023-05-28T19:07:30.315Z,23.71
2023-05-28T19:10:03.656Z,23.85
2023-05-28T19:12:30.581Z,23.88
2023-05-28T19:14:59.080Z,24.30
2023-05-28T19:17:25.106Z,24.18
2023-05-28T19:19:51.245Z,24.13
2023-05-28T19:22:17.133Z,24.01
2023-05-28T19:24:43.293Z,23.36
2023-05-28T19:27:09.282Z,24.08
2023-05-28T19:29:35.219Z,23.91
2023-05-28T19:32:01.206Z,23.97
2023-05-28T19:34:27.226Z,23.67
2023-05-28T19:36:53.192Z,23.43
2023-05-28T19:39:19.237Z,23.78
2023-05-28T19:41:45.201Z,23.72
2023-05-28T19:44:11.581Z,23.58
2023-05-28T19:46:37.612Z,23.45
2023-05-28T19:49:03.581Z,23.48
2023-05-28T19:51:29.528Z,23.41
2023-05-28T19:53:55.771Z,23.47
2023-05-28T19:56:21.725Z,22.70
2023-05-28T19:58:47.696Z,23.14
2023-05-28T20:01:14.121Z,22.31
2023-05-28T20:03:40.623Z,22.61
2023-05-28T20:06:07.120Z,22.55
2023-05-28T20:08:33.566Z,22.92
2023-05-28T20:10:59.633Z,22.84
2023-05-28T20:13:25.778Z,23.13
2023-05-28T20:15:54.720Z,23.02
2023-05-28T20:18:20.781Z,22.67
2023-05-28T20:20:48.511Z,22.66
2023-05-28T20:23:14.708Z,22.42
2023-05-28T20:25:40.758Z,21.73
2023-05-28T20:28:06.696Z,21.59
2023-05-28T20:30:32.652Z,21.98
2023-05-28T20:32:58.990Z,21.87
2023-05-28T20:35:28.178Z,22.67
2023-05-28T20:38:01.573Z,22.79
2023-05-28T20:40:31.880Z,22.76
2023-05-28T20:42:58.137Z,22.81
2023-05-28T20:45:24.142Z,22.69
2023-05-28T20:47:50.072Z,22.80
2023-05-28T20:50:16.224Z,21.96
2023-05-28T20:52:44.526Z,22.50
2023-05-28T20:55:10.552Z,22.68
2023-05-28T20:57:51.342Z,22.73
2023-05-28T21:00:17.670Z,22.78
2023-05-28T21:02:44.902Z,22.01
2023-05-28T21:05:11.403Z,21.58
2023-05-28T21:07:37.862Z,21.32
2023-05-28T21:10:04.109Z,20.96
2023-05-28T21:12:30.002Z,21.62
2023-05-28T21:14:55.913Z,22.02
2023-05-28T21:17:22.227Z,22.11
2023-05-28T21:19:48.182Z,22.02
2023-05-28T21:22:14.337Z,21.42
2023-05-28T21:24:40.243Z,21.58
2023-05-28T21:27:06.583Z,20.36
2023-05-28T21:29:32.435Z,20.80
2023-05-28T21:31:58.296Z,21.84
2023-05-28T21:34:24.214Z,21.66
2023-05-28T21:36:50.178Z,20.52
2023-05-28T21:39:16.092Z,20.04
2023-05-28T21:41:41.968Z,21.33
2023-05-28T21:44:07.849Z,21.66
2023-05-28T21:46:33.728Z,20.68
2023-05-28T21:48:59.808Z,21.44
2023-05-28T21:51:25.818Z,21.98
2023-05-28T21:53:52.033Z,21.31
2023-05-28T21:56:18.092Z,21.79
2023-05-28T21:58:44.118Z,21.28
2023-05-28T22:01:10.558Z,20.35
2023-05-28T22:03:36.742Z,20.25
2023-05-28T22:06:02.764Z,20.54
2023-05-28T22:08:28.629Z,21.31
2023-05-28T22:10:57.288Z,21.01
2023-05-28T22:13:25.282Z,21.00
2023-05-28T22:15:51.294Z,20.60
2023-05-28T22:18:17.323Z,19.82
2023-05-28T22:20:48.686Z,19.93
2023-05-28T22:23:14.579Z,20.46
2023-05-28T22:25:41.494Z,19.51
2023-05-28T22:28:07.633Z,19.58
2023-05-28T22:30:33.656Z,18.58
2023-05-28T22:33:00.443Z,19.77
2023-05-28T22:35:27.957Z,19.95
2023-05-28T22:37:54.495Z,19.45
2023-05-28T22:40:20.810Z,19.75
2023-05-28T22:42:46.723Z,19.38
2023-05-28T22:45:13.751Z,18.11
2023-05-28T22:47:41.010Z,19.65
2023-05-28T22:50:08.273Z,19.79
2023-05-28T22:52:34.217Z,18.92
2023-05-28T22:55:00.144Z,18.26
2023-05-28T22:57:26.079Z,19.11
2023-05-28T22:59:51.984Z,19.08
2023-05-28T23:02:17.905Z,19.70
2023-05-28T23:04:43.897Z,20.06
2023-05-28T23:07:09.927Z,19.33
2023-05-28T23:09:36.077Z,19.69
2023-05-28T23:12:02.332Z,19.21
2023-05-28T23:14:28.212Z,19.46
2023-05-28T23:16:54.155Z,19.49
2023-05-28T23:19:24.317Z,19.04
2023-05-28T23:21:51.205Z,18.58
2023-05-28T23:24:17.152Z,19.21
2023-05-28T23:26:43.060Z,19.40
2023-05-28T23:29:09.598Z,19.07
2023-05-28T23:31:35.579Z,19.45
2023-05-28T23:34:01.979Z,19.01
2023-05-28T23:36:28.449Z,18.38
2023-05-28T23:38:56.064Z,18.11
2023-05-28T23:41:22.321Z,18.44
2023-05-28T23:43:48.259Z,18.81
2023-05-28T23:46:15.378Z,18.17
2023-05-28T23:48:41.487Z,17.98
2023-05-28T23:51:07.410Z,17.80
2023-05-28T23:53:33.317Z,18.78
2023-05-28T23:55:59.387Z,18.77
2023-05-28T23:58:25.508Z,19.00
